createdAt,value
2018-04-26T00:00:20.184Z,12.72
2018-04-26T00:06:11.038Z,15.23
2018-04-26T00:12:01.951Z,12.19
2018-04-26T00:17:52.842Z,10.12
2018-04-26T00:23:43.720Z,12.07
2018-04-26T00:29:34.611Z,15.85
2018-04-26T00:35:25.530Z,14.74
2018-04-26T00:41:16.381Z,12.42
2018-04-26T00:47:07.291Z,12.18
2018-04-26T00:52:58.198Z,13
2018-04-26T00:58:49.025Z,12.65
2018-04-26T01:04:39.909Z,12.37
2018-04-26T01:10:30.860Z,15.4
2018-04-26T01:16:21.711Z,14.23
2018-04-26T01:22:12.612Z,11.45
2018-04-26T01:28:03.464Z,12.74
2018-04-26T01:33:54.341Z,13.48
2018-04-26T01:39:45.233Z,11.48
2018-04-26T01:45:36.163Z,12.48
2018-04-26T01:51:27.020Z,14.93
2018-04-26T01:57:17.874Z,11.17
2018-04-26T02:03:08.756Z,15.98
2018-04-26T02:08:59.668Z,9.91
2018-04-26T02:14:50.508Z,12.49
2018-04-26T02:20:41.421Z,12.81
2018-04-26T02:26:32.298Z,13.91
2018-04-26T02:32:23.220Z,14.2
2018-04-26T02:38:14.075Z,14.56
2018-04-26T02:44:04.978Z,13.58
2018-04-26T02:49:55.805Z,16.12
2018-04-26T02:55:46.756Z,14.22
2018-04-26T03:01:37.602Z,14.17
2018-04-26T03:07:28.489Z,14.24
2018-04-26T03:13:19.367Z,12.95
2018-04-26T03:19:10.305Z,13.04
2018-04-26T03:25:01.142Z,16.91
2018-04-26T03:30:52.036Z,14.68
2018-04-26T03:36:42.897Z,14.28
2018-04-26T03:42:33.806Z,15.48
2018-04-26T03:48:24.675Z,13.68
2018-04-26T03:54:15.558Z,11.93
2018-04-26T04:00:06.425Z,12.49
2018-04-26T04:05:57.403Z,14.57
2018-04-26T04:11:48.222Z,15.25
2018-04-26T04:17:39.075Z,19.46
2018-04-26T04:23:30.027Z,17.01
2018-04-26T04:29:20.926Z,12.47
2018-04-26T04:35:11.745Z,12.87
2018-04-26T04:41:02.662Z,13.82
2018-04-26T04:46:53.496Z,21.48
2018-04-26T04:52:44.391Z,19.9
2018-04-26T04:58:35.224Z,69.76
2018-04-26T05:04:26.102Z,47.64
2018-04-26T05:10:17.081Z,32.19
2018-04-26T05:16:07.902Z,32.66
2018-04-26T05:21:58.779Z,34.76
2018-04-26T05:27:49.624Z,29.78
2018-04-26T05:33:40.596Z,31.64
2018-04-26T05:39:31.405Z,29.63
2018-04-26T05:45:22.284Z,34.88
2018-04-26T05:51:13.173Z,28.94
2018-04-26T05:57:04.096Z,32.95
2018-04-26T06:02:54.926Z,37.99
2018-04-26T06:08:45.857Z,39.82
2018-04-26T06:14:36.678Z,44.04
2018-04-26T06:20:27.580Z,47.54
2018-04-26T06:26:18.428Z,59.21
2018-04-26T06:32:09.317Z,52.47
2018-04-26T06:38:00.231Z,65.19
2018-04-26T06:43:51.083Z,61.14
2018-04-26T06:49:42.054Z,56.86
2018-04-26T06:55:32.866Z,53.88
2018-04-26T07:07:14.640Z,46.86
2018-04-26T07:13:05.508Z,37.4
2018-04-26T07:18:56.414Z,37.85
2018-04-26T07:24:47.287Z,27.6
2018-04-26T07:30:38.212Z,26.43
2018-04-26T07:36:29.025Z,26.42
2018-04-26T07:42:19.966Z,26.34
2018-04-26T07:48:10.797Z,28.03
2018-04-26T07:54:01.720Z,30.94
2018-04-26T07:59:52.611Z,30.65
2018-04-26T08:05:43.468Z,23.26
2018-04-26T08:11:34.321Z,22.32
2018-04-26T08:17:25.217Z,27.51
2018-04-26T08:23:16.142Z,20.68
2018-04-26T08:29:06.988Z,17.59
2018-04-26T08:34:57.916Z,16.62
2018-04-26T08:40:48.788Z,10.93
2018-04-26T08:46:39.685Z,14.13
2018-04-26T08:52:30.570Z,13.04
2018-04-26T08:58:21.415Z,14.14
2018-04-26T09:04:12.351Z,14.54
2018-04-26T09:10:03.202Z,36.38
2018-04-26T09:15:54.106Z,25.57
2018-04-26T09:21:45.055Z,36.39
2018-04-26T09:27:35.880Z,32.84
2018-04-26T09:33:26.754Z,66.3
2018-04-26T09:39:17.641Z,89.97
2018-04-26T09:45:08.567Z,97.31
2018-04-26T09:50:59.446Z,90.8
2018-04-26T09:56:50.348Z,87.93
2018-04-26T10:02:41.239Z,96.78
2018-04-26T10:08:32.159Z,88.32
2018-04-26T10:14:23.022Z,75.97
2018-04-26T10:20:13.880Z,57.78
2018-04-26T10:26:04.828Z,57.5
2018-04-26T10:31:55.723Z,66.35
2018-04-26T10:37:46.614Z,50.74
2018-04-26T10:43:37.523Z,58.44
2018-04-26T10:49:28.434Z,54.94
2018-04-26T10:55:19.329Z,41.3
2018-04-26T11:01:10.236Z,36.27
2018-04-26T11:07:01.142Z,29.52
2018-04-26T11:12:52.066Z,40.54
2018-04-26T11:18:42.991Z,42.38
2018-04-26T11:24:33.926Z,32.56
2018-04-26T11:30:24.844Z,21.56
2018-04-26T11:36:15.737Z,22.63
2018-04-26T11:42:06.742Z,27.94
2018-04-26T11:47:57.624Z,32.2
2018-04-26T11:53:48.546Z,29.57
2018-04-26T11:59:39.480Z,20.28
2018-04-26T12:05:30.478Z,23.2
2018-04-26T12:11:21.379Z,18.15
2018-04-26T12:17:12.322Z,39.96
2018-04-26T12:23:03.319Z,29.98
2018-04-26T12:28:54.235Z,27.27
2018-04-26T12:34:45.180Z,25.64
2018-04-26T12:40:36.205Z,17.05
2018-04-26T12:46:27.120Z,17.72
2018-04-26T12:52:18.071Z,17.03
2018-04-26T12:58:09.052Z,11.68
2018-04-26T13:03:59.988Z,17.92
2018-04-26T13:09:50.951Z,15.6
2018-04-26T13:15:41.951Z,18.21
2018-04-26T13:21:32.889Z,11.45
2018-04-26T13:27:23.852Z,10.35
2018-04-26T13:33:14.795Z,7.76
2018-04-26T13:39:05.739Z,9.42
2018-04-26T13:44:56.792Z,10.08
2018-04-26T13:50:47.653Z,11.67
2018-04-26T13:56:38.627Z,15.37
2018-04-26T14:02:29.613Z,14.78
2018-04-26T14:08:20.528Z,10.35
2018-04-26T14:14:11.565Z,9.51
2018-04-26T14:20:02.479Z,12.69
2018-04-26T14:25:53.389Z,8.36
2018-04-26T14:31:44.370Z,9.14
2018-04-26T14:37:35.277Z,10.32
2018-04-26T14:43:26.333Z,10.2
2018-04-26T14:49:17.214Z,28.21
2018-04-26T14:55:08.152Z,23.37
2018-04-26T15:00:59.058Z,39.41
2018-04-26T15:06:50.027Z,34.89
2018-04-26T15:12:41.051Z,26.16
2018-04-26T15:18:31.902Z,28.87
2018-04-26T15:24:22.851Z,19.45
2018-04-26T15:30:13.801Z,22.23
2018-04-26T15:36:04.738Z,20.34
2018-04-26T15:43:03.391Z,41.61
2018-04-26T15:48:54.251Z,30.7
2018-04-26T16:00:36.205Z,25.78
2018-04-26T16:06:27.123Z,17.52
2018-04-26T16:12:18.047Z,26.42
2018-04-26T16:18:08.992Z,23.38
2018-04-26T16:23:59.924Z,16.68
2018-04-26T16:29:50.868Z,14.07
2018-04-26T16:35:41.842Z,10.97
2018-04-26T16:41:32.831Z,11.05
2018-04-26T16:47:23.687Z,8.95
2018-04-26T16:53:14.575Z,10.75
2018-04-26T16:59:05.511Z,9.33
2018-04-26T17:04:56.474Z,8.95
2018-04-26T17:10:47.413Z,8.04
2018-04-26T17:16:38.309Z,13.2
2018-04-26T17:22:29.280Z,11.42
2018-04-26T17:28:20.207Z,7.43
2018-04-26T17:34:11.074Z,9.55
2018-04-26T17:40:02.039Z,10.2
2018-04-26T17:45:53.029Z,7.94
2018-04-26T17:57:34.796Z,13.25
2018-04-26T18:03:25.743Z,11.71
2018-04-26T18:09:16.721Z,7.23
2018-04-26T18:15:07.574Z,11.02
2018-04-26T18:20:58.502Z,10.83
2018-04-26T18:26:49.405Z,9.62
2018-04-26T18:32:40.932Z,12.19
2018-04-26T18:38:31.220Z,9.08
2018-04-26T18:44:22.260Z,11.14
2018-04-26T18:50:13.152Z,9.91
2018-04-26T18:56:03.990Z,10.07
2018-04-26T19:01:54.923Z,10.6
2018-04-26T19:07:45.865Z,11.46
2018-04-26T19:13:36.757Z,8.08
2018-04-26T19:19:27.694Z,9.57
2018-04-26T19:25:18.599Z,9.03
2018-04-26T19:31:09.495Z,9.87
2018-04-26T19:37:00.407Z,11.91
2018-04-26T19:42:51.348Z,10.91
2018-04-26T19:48:42.210Z,9.35
2018-04-26T19:54:33.126Z,11.09
2018-04-26T20:00:24.067Z,11.22
2018-04-26T20:06:15.003Z,10.02
2018-04-26T20:12:05.868Z,9.41
2018-04-26T20:17:56.744Z,18.56
2018-04-26T20:23:47.668Z,14.73
2018-04-26T20:29:38.602Z,11.11
2018-04-26T20:35:29.491Z,11.51
2018-04-26T20:41:20.472Z,9.96
2018-04-26T20:47:11.296Z,10.4
2018-04-26T20:53:02.230Z,16.24
2018-04-26T20:58:53.138Z,9.88
2018-04-26T21:04:44.030Z,10.41
2018-04-26T21:10:35.013Z,10.66
2018-04-26T21:16:25.809Z,10.31
2018-04-26T21:22:16.717Z,12.77
2018-04-26T21:28:07.603Z,12.61
2018-04-26T21:33:58.559Z,10.42
2018-04-26T21:39:49.401Z,8.92
2018-04-26T21:45:40.313Z,12.52
2018-04-26T21:51:31.242Z,10.59
2018-04-26T21:57:22.124Z,14.45
2018-04-26T22:03:13.024Z,16
2018-04-26T22:09:03.889Z,9.55
2018-04-26T22:14:54.803Z,12.6
2018-04-26T22:20:45.694Z,12.76
2018-04-26T22:26:36.564Z,9.56
2018-04-26T22:32:27.476Z,11.34
2018-04-26T22:38:18.386Z,10.26
2018-04-26T22:44:09.239Z,7.67
2018-04-26T22:50:00.166Z,9.23
2018-04-26T22:55:51.065Z,12.5
2018-04-26T23:01:41.970Z,13.05
2018-04-26T23:07:32.805Z,10.24
2018-04-26T23:13:23.756Z,10.54
2018-04-26T23:19:14.632Z,13.52
2018-04-26T23:25:05.509Z,12.98
2018-04-26T23:30:56.374Z,12.02
2018-04-26T23:36:47.294Z,10.52
2018-04-26T23:42:38.209Z,10.48
2018-04-26T23:48:29.074Z,10.88
2018-04-26T23:54:19.945Z,9.48
